Time;durP1;ratioP1;P1;durP2;ratioP2;P2;SDS_P1;SDS_P2;PMS_P1;PMS_P2;Temp;Humidity;BMP_temperature;BMP_pressure;BME280_temperature;BME280_humidity;BME280_pressure;Samples;Min_cycle;Max_cycle;Signal;HPM_P1;HPM_P2
2022/05/19 00:01:38;;;;;;;1.05;1.05;;;13.00;99.90;;;;;;4162093;28;20060;-43
2022/05/19 00:03:40;;;;;;;1.38;1.00;;;13.00;99.90;;;;;;4162153;28;20037;-46
2022/05/19 00:05:43;;;;;;;;;;;13.00;99.90;;;;;;4162536;28;20045;-43
2022/05/19 00:07:45;;;;;;;1.05;1.05;;;13.00;99.90;;;;;;4162061;28;19931;-43
2022/05/19 00:09:49;;;;;;;0.90;0.90;;;13.00;99.90;;;;;;4161971;28;20075;-43
2022/05/19 00:11:53;;;;;;;1.35;0.90;;;12.90;99.90;;;;;;4161821;28;20561;-43
2022/05/19 00:13:55;;;;;;;1.05;1.00;;;12.90;99.90;;;;;;4149610;28;20042;-43
2022/05/19 00:15:58;;;;;;;0.90;0.90;;;12.70;99.90;;;;;;4148722;28;20084;-43
2022/05/19 00:18:03;;;;;;;1.05;1.00;;;12.60;99.90;;;;;;4161700;28;20140;-43
2022/05/19 00:20:06;;;;;;;1.75;1.08;;;12.60;99.90;;;;;;4161687;28;20466;-43
2022/05/19 00:22:08;;;;;;;1.00;1.00;;;12.60;99.90;;;;;;4160132;28;20042;-43
2022/05/19 00:24:11;;;;;;;2.47;1.20;;;12.40;99.90;;;;;;4145605;28;20044;-43
2022/05/19 00:26:13;;;;;;;1.08;1.08;;;12.30;99.90;;;;;;4154318;28;20047;-43
2022/05/19 00:28:15;;;;;;;1.70;1.02;;;12.30;99.90;;;;;;4162001;28;20049;-45
2022/05/19 00:30:18;;;;;;;1.38;1.30;;;12.10;99.90;;;;;;4161451;28;20136;-43
2022/05/19 00:32:20;;;;;;;1.00;0.90;;;12.30;99.90;;;;;;4154661;28;20567;-43
2022/05/19 00:34:22;;;;;;;0.90;0.90;;;12.40;99.90;;;;;;4145609;28;20149;-44
2022/05/19 00:36:24;;;;;;;1.55;0.88;;;12.30;99.90;;;;;;4158569;28;20048;-43
2022/05/19 00:38:27;;;;;;;1.52;1.02;;;12.30;99.90;;;;;;4161234;28;20132;-43
2022/05/19 00:40:29;;;;;;;0.90;0.90;;;12.40;99.90;;;;;;4160941;28;20513;-43
2022/05/19 00:42:43;;;;;;;1.98;1.00;;;12.50;99.90;;;;;;4161029;28;20044;-45
2022/05/19 00:44:45;;;;;;;1.02;1.02;;;12.40;99.90;;;;;;4161352;28;20092;-43
2022/05/19 00:46:55;;;;;;;2.15;1.13;;;12.50;99.90;;;;;;4161278;28;20034;-43
2022/05/19 00:49:12;;;;;;;1.15;0.90;;;12.70;99.90;;;;;;4148014;28;20045;-43
2022/05/19 00:51:17;;;;;;;1.30;1.20;;;12.80;99.90;;;;;;4149702;28;20050;-43
2022/05/19 00:53:35;;;;;;;1.25;1.00;;;12.90;99.90;;;;;;4161276;28;20041;-43
2022/05/19 00:55:42;;;;;;;0.90;0.90;;;12.70;99.90;;;;;;4161434;28;20053;-43
2022/05/19 00:58:01;;;;;;;1.00;1.00;;;12.30;99.90;;;;;;4159935;28;20048;-44
2022/05/19 01:00:09;;;;;;;1.42;1.35;;;12.20;99.90;;;;;;4161132;28;20553;-43
2022/05/19 01:02:18;;;;;;;1.13;1.00;;;12.00;99.90;;;;;;4160784;28;20045;-43
2022/05/19 01:04:35;;;;;;;2.33;0.93;;;12.10;99.90;;;;;;4161151;28;20037;-43
2022/05/19 01:06:39;;;;;;;1.08;1.08;;;12.30;99.90;;;;;;4160808;28;20041;-43
2022/05/19 01:09:01;;;;;;;0.80;0.80;;;12.30;99.90;;;;;;4160985;28;20042;-42
2022/05/19 01:11:06;;;;;;;1.15;1.00;;;12.40;99.90;;;;;;4160670;28;20129;-44
2022/05/19 01:13:11;;;;;;;4.22;0.85;;;12.50;99.90;;;;;;4160861;28;20048;-43
2022/05/19 01:15:14;;;;;;;1.38;0.95;;;12.50;99.90;;;;;;4161251;28;20092;-42
2022/05/19 01:17:16;;;;;;;1.50;0.98;;;12.60;99.90;;;;;;4160470;28;20488;-43
2022/05/19 01:19:27;;;;;;;1.92;1.00;;;12.60;99.90;;;;;;4160775;28;20041;-43
2022/05/19 01:21:32;;;;;;;1.00;1.00;;;12.40;99.90;;;;;;4144669;28;20065;-43
2022/05/19 01:24:02;;;;;;;4.13;1.00;;;12.50;99.90;;;;;;4152559;28;20038;-43
2022/05/19 01:26:22;;;;;;;1.10;1.00;;;12.20;99.90;;;;;;4160982;28;20087;-44
2022/05/19 01:28:25;;;;;;;1.20;1.10;;;12.10;99.90;;;;;;4161031;28;20045;-42
2022/05/19 01:30:28;;;;;;;3.35;1.63;;;11.70;99.90;;;;;;4160614;28;20132;-43
2022/05/19 01:32:33;;;;;;;0.98;0.98;;;11.50;99.90;;;;;;4160861;28;20594;-42
2022/05/19 01:34:35;;;;;;;1.23;1.23;;;11.40;99.90;;;;;;4161075;28;20053;-44
2022/05/19 01:36:38;;;;;;;1.33;0.98;;;11.40;99.90;;;;;;4160618;28;20051;-43
2022/05/19 01:38:40;;;;;;;1.02;0.98;;;11.50;99.90;;;;;;4160595;28;20045;-43
2022/05/19 01:41:13;;;;;;;1.00;1.00;;;11.40;99.90;;;;;;4160817;28;20413;-42
2022/05/19 01:43:45;;;;;;;5.05;0.90;;;11.50;99.90;;;;;;4162800;28;20392;-43
2022/05/19 01:46:17;;;;;;;1.30;1.10;;;11.50;99.90;;;;;;4163770;28;20401;-43
2022/05/19 01:48:38;;;;;;;3.55;1.10;;;11.50;99.90;;;;;;4163925;28;20076;-42
2022/05/19 01:51:08;;;;;;;1.00;1.00;;;11.60;99.90;;;;;;4163873;28;20172;-43
2022/05/19 01:53:21;;;;;;;1.63;0.90;;;11.50;99.90;;;;;;4163646;28;20052;-43
2022/05/19 01:55:35;;;;;;;;;;;11.40;99.90;;;;;;4164082;28;20055;-43
2022/05/19 01:57:43;;;;;;;0.90;0.90;;;11.20;99.90;;;;;;4163722;28;19970;-43
2022/05/19 01:59:59;;;;;;;1.00;1.00;;;11.10;99.90;;;;;;4147225;28;20042;-43
2022/05/19 02:02:35;;;;;;;3.17;0.90;;;11.10;99.90;;;;;;4156737;28;20042;-43
2022/05/19 02:04:46;;;;;;;2.15;0.90;;;11.10;99.90;;;;;;4161957;28;20046;-42
2022/05/19 02:07:05;;;;;;;1.38;1.20;;;11.10;99.90;;;;;;4163804;28;20465;-44
2022/05/19 02:09:15;;;;;;;1.70;0.93;;;11.00;99.90;;;;;;4163266;28;20131;-44
2022/05/19 02:11:41;;;;;;;1.73;1.25;;;10.90;99.90;;;;;;4163187;28;20053;-42
2022/05/19 02:13:44;;;;;;;1.50;0.98;;;10.90;99.90;;;;;;4163090;28;20045;-44
2022/05/19 02:15:51;;;;;;;0.90;0.90;;;11.00;99.90;;;;;;4163293;28;20430;-44
2022/05/19 02:17:55;;;;;;;2.25;1.38;;;11.00;99.90;;;;;;4163115;28;20041;-43
2022/05/19 02:20:03;;;;;;;1.20;1.05;;;10.90;99.90;;;;;;4163002;28;20080;-43
2022/05/19 02:22:11;;;;;;;1.83;0.90;;;10.90;99.90;;;;;;4146735;28;20052;-43
2022/05/19 02:24:18;;;;;;;1.10;1.10;;;10.90;99.90;;;;;;4155346;28;20033;-43
2022/05/19 02:26:20;;;;;;;1.00;1.00;;;11.00;99.90;;;;;;4163250;28;20049;-43
2022/05/19 02:28:30;;;;;;;0.90;0.90;;;11.00;99.90;;;;;;4147091;28;20046;-43
2022/05/19 02:30:35;;;;;;;1.02;1.00;;;11.00;99.90;;;;;;4154436;28;20045;-43
2022/05/19 02:32:38;;;;;;;1.85;1.00;;;11.10;99.90;;;;;;4162957;28;20120;-42
2022/05/19 02:34:40;;;;;;;1.70;0.90;;;11.20;99.90;;;;;;4163026;28;20072;-42
2022/05/19 02:36:45;;;;;;;1.00;1.00;;;11.20;99.90;;;;;;4162695;28;20378;-43
2022/05/19 02:38:47;;;;;;;1.00;1.00;;;11.10;99.90;;;;;;4163030;28;20071;-43
2022/05/19 02:40:50;;;;;;;1.40;1.00;;;11.20;99.90;;;;;;4162636;28;20079;-42
2022/05/19 02:42:54;;;;;;;1.00;1.00;;;11.20;99.90;;;;;;4162449;28;20409;-43
2022/05/19 02:44:56;;;;;;;;;;;11.20;99.90;;;;;;4162332;28;20042;-42
2022/05/19 02:46:58;;;;;;;3.97;1.35;;;11.10;99.90;;;;;;4162526;28;19921;-43
2022/05/19 02:49:01;;;;;;;1.00;1.00;;;11.10;99.90;;;;;;4162805;28;20037;-43
2022/05/19 02:51:04;;;;;;;0.90;0.90;;;11.10;99.90;;;;;;4162348;28;20110;-42
2022/05/19 02:53:07;;;;;;;2.15;1.10;;;11.00;99.90;;;;;;4162519;28;20041;-42
2022/05/19 02:55:10;;;;;;;1.45;1.15;;;10.90;99.90;;;;;;4161796;28;20050;-43
2022/05/19 02:57:12;;;;;;;2.08;1.20;;;11.00;99.90;;;;;;4162499;28;20069;-43
2022/05/19 02:59:15;;;;;;;1.10;1.00;;;10.90;99.90;;;;;;4162995;28;20034;-43
2022/05/19 03:01:17;;;;;;;0.85;0.85;;;10.90;99.90;;;;;;4162694;28;20037;-43
2022/05/19 03:03:20;;;;;;;0.90;0.90;;;10.90;99.90;;;;;;4162510;28;20047;-43
2022/05/19 03:05:25;;;;;;;1.30;1.20;;;10.90;99.90;;;;;;4161184;28;20267;-43
2022/05/19 03:07:27;;;;;;;2.00;1.60;;;10.80;99.90;;;;;;4162359;28;20047;-43
2022/05/19 03:09:29;;;;;;;1.00;1.00;;;10.70;99.90;;;;;;4162232;28;20280;-43
2022/05/19 03:11:32;;;;;;;1.10;1.10;;;10.70;99.90;;;;;;4162229;28;20579;-43
2022/05/19 03:13:34;;;;;;;;;;;10.60;99.90;;;;;;4163259;28;20119;-42
2022/05/19 03:15:36;;;;;;;1.77;1.20;;;10.40;99.90;;;;;;4162090;28;20127;-43
2022/05/19 03:17:38;;;;;;;1.08;1.08;;;10.40;99.90;;;;;;4162005;28;20048;-43
2022/05/19 03:19:40;;;;;;;2.15;1.10;;;10.30;99.90;;;;;;4162105;28;20046;-42
2022/05/19 03:21:43;;;;;;;1.30;1.20;;;10.30;99.90;;;;;;4162153;28;20572;-43
2022/05/19 03:23:45;;;;;;;1.25;1.10;;;10.30;99.90;;;;;;4162396;28;20038;-43
2022/05/19 03:25:47;;;;;;;1.20;1.20;;;10.30;99.90;;;;;;4145797;28;20081;-43
2022/05/19 03:27:49;;;;;;;1.10;0.95;;;10.20;99.90;;;;;;4153179;28;20044;-43
2022/05/19 03:29:53;;;;;;;0.98;0.98;;;10.20;99.90;;;;;;4161795;28;20045;-42
2022/05/19 03:31:55;;;;;;;1.20;1.20;;;10.10;99.90;;;;;;4161911;28;20045;-44
2022/05/19 03:33:57;;;;;;;1.27;1.27;;;10.00;99.90;;;;;;4162319;28;20042;-44
2022/05/19 03:36:02;;;;;;;1.10;1.10;;;9.90;99.90;;;;;;4162690;28;20049;-44
2022/05/19 03:38:04;;;;;;;3.00;1.35;;;9.90;99.90;;;;;;4162282;28;20045;-43
2022/05/19 03:40:07;;;;;;;1.92;1.20;;;9.90;99.90;;;;;;4158534;28;20046;-44
2022/05/19 03:42:10;;;;;;;8.20;1.02;;;9.80;99.90;;;;;;4145822;28;20042;-45
2022/05/19 03:44:12;;;;;;;;;;;9.80;99.90;;;;;;4157086;28;20037;-43
2022/05/19 03:46:14;;;;;;;1.00;0.90;;;9.80;99.90;;;;;;4161553;28;19986;-43
2022/05/19 03:48:17;;;;;;;0.90;0.90;;;9.90;99.90;;;;;;4162130;28;20045;-44
2022/05/19 03:50:19;;;;;;;1.02;1.02;;;10.00;99.90;;;;;;4161536;28;20564;-43
2022/05/19 03:52:24;;;;;;;2.35;1.00;;;10.10;99.90;;;;;;4161943;28;20501;-43
2022/05/19 03:54:26;;;;;;;1.45;1.20;;;10.10;99.90;;;;;;4161581;28;20454;-43
2022/05/19 03:56:28;;;;;;;1.15;0.98;;;10.10;99.90;;;;;;4161601;28;20099;-43
2022/05/19 03:58:30;;;;;;;1.27;0.90;;;10.20;99.90;;;;;;4162117;28;20046;-43
2022/05/19 04:00:33;;;;;;;1.20;1.10;;;10.20;99.90;;;;;;4161571;28;20100;-43
2022/05/19 04:02:36;;;;;;;2.30;1.25;;;10.30;99.90;;;;;;4161646;28;20087;-44
2022/05/19 04:04:38;;;;;;;1.90;1.80;;;10.20;99.90;;;;;;4160508;28;20133;-43
2022/05/19 04:06:40;;;;;;;1.20;1.20;;;10.20;99.90;;;;;;4149886;28;20407;-43
2022/05/19 04:08:43;;;;;;;;;;;10.20;99.90;;;;;;4160247;28;20659;-43
2022/05/19 04:10:47;;;;;;;0.80;0.80;;;10.20;99.90;;;;;;4161684;28;19925;-43
2022/05/19 04:12:49;;;;;;;0.80;0.80;;;10.30;99.90;;;;;;4154793;28;20501;-43
2022/05/19 04:14:51;;;;;;;3.00;0.93;;;10.30;99.90;;;;;;4161651;28;20505;-43
2022/05/19 04:16:53;;;;;;;1.17;0.90;;;10.30;99.90;;;;;;4161583;28;20049;-43
2022/05/19 04:18:55;;;;;;;1.00;1.00;;;10.20;99.90;;;;;;4152935;28;20136;-44
2022/05/19 04:20:58;;;;;;;1.83;1.08;;;10.20;99.90;;;;;;4161264;28;20064;-45
2022/05/19 04:23:01;;;;;;;1.20;1.10;;;10.10;99.90;;;;;;4161375;28;20048;-44
2022/05/19 04:25:06;;;;;;;1.15;1.15;;;10.10;99.90;;;;;;4161533;28;20032;-44
2022/05/19 04:27:11;;;;;;;0.90;0.90;;;10.10;99.90;;;;;;4161294;28;20152;-44
2022/05/19 04:29:13;;;;;;;2.15;1.00;;;10.00;99.90;;;;;;4160975;28;20037;-43
2022/05/19 04:31:15;;;;;;;2.45;1.58;;;10.10;99.90;;;;;;4158164;28;20041;-44
2022/05/19 04:33:17;;;;;;;;;;;10.10;99.90;;;;;;4161759;28;20046;-44
2022/05/19 04:35:20;;;;;;;1.00;1.00;;;10.00;99.90;;;;;;4161432;28;19921;-44
2022/05/19 04:37:23;;;;;;;1.60;1.20;;;10.10;99.90;;;;;;4161107;28;20571;-44
2022/05/19 04:39:25;;;;;;;2.58;1.25;;;10.20;99.90;;;;;;4161240;28;20048;-43
2022/05/19 04:41:27;;;;;;;;;;;10.30;99.90;;;;;;4161398;28;20516;-43
2022/05/19 04:43:30;;;;;;;4.53;1.20;;;10.20;99.90;;;;;;4161447;28;19924;-44
2022/05/19 04:45:32;;;;;;;1.05;1.05;;;10.20;99.90;;;;;;4145001;28;20038;-44
2022/05/19 04:47:35;;;;;;;;;;;10.20;99.90;;;;;;4151498;28;20037;-44
2022/05/19 04:49:38;;;;;;;2.05;1.30;;;10.10;99.90;;;;;;4161273;28;19925;-45
2022/05/19 04:51:45;;;;;;;1.20;1.20;;;10.00;99.90;;;;;;4160745;28;20537;-44
2022/05/19 04:53:48;;;;;;;1.20;1.20;;;9.90;99.90;;;;;;4161168;28;20033;-44
2022/05/19 04:55:52;;;;;;;7.65;2.75;;;10.00;99.90;;;;;;4160790;28;20409;-43
2022/05/19 04:57:54;;;;;;;1.02;1.02;;;10.10;99.90;;;;;;4161199;28;20033;-43
2022/05/19 04:59:56;;;;;;;1.23;1.08;;;10.20;99.90;;;;;;4161006;28;20469;-43
2022/05/19 05:02:01;;;;;;;2.97;1.08;;;10.20;99.90;;;;;;4161131;28;20490;-44
2022/05/19 05:04:04;;;;;;;2.20;1.30;;;10.20;99.90;;;;;;4161066;28;20049;-43
2022/05/19 05:06:07;;;;;;;2.22;1.25;;;10.20;99.90;;;;;;4160965;28;20065;-46
2022/05/19 05:08:09;;;;;;;3.08;1.60;;;10.20;99.90;;;;;;4161243;28;20041;-44
2022/05/19 05:10:11;;;;;;;3.13;1.42;;;10.10;99.90;;;;;;4161072;28;20037;-43
2022/05/19 05:12:14;;;;;;;1.33;1.10;;;10.20;99.90;;;;;;4160942;28;20296;-44
2022/05/19 05:14:17;;;;;;;1.35;1.35;;;10.20;99.90;;;;;;4144786;28;20042;-43
2022/05/19 05:16:20;;;;;;;3.00;1.50;;;10.30;99.90;;;;;;4152057;28;20522;-43
2022/05/19 05:18:26;;;;;;;1.73;1.60;;;10.30;99.90;;;;;;4163158;28;20041;-44
2022/05/19 05:20:28;;;;;;;2.05;1.20;;;10.40;99.90;;;;;;4164065;28;20048;-44
2022/05/19 05:22:34;;;;;;;1.10;1.10;;;10.60;99.90;;;;;;4163592;28;20137;-44
2022/05/19 05:24:36;;;;;;;3.35;1.00;;;10.70;99.90;;;;;;4164174;28;20112;-44
2022/05/19 05:26:38;;;;;;;1.02;1.00;;;10.80;99.90;;;;;;4164133;28;20041;-45
2022/05/19 05:28:41;;;;;;;1.13;0.98;;;10.80;99.90;;;;;;4164041;28;20426;-44
2022/05/19 05:30:46;;;;;;;2.33;1.00;;;10.80;99.90;;;;;;4163891;28;20562;-43
2022/05/19 05:32:49;;;;;;;1.00;1.00;;;10.80;99.90;;;;;;4164805;28;20038;-44
2022/05/19 05:34:51;;;;;;;;;;;10.90;99.90;;;;;;4164378;28;20776;-43
2022/05/19 05:36:53;;;;;;;2.85;1.08;;;11.00;99.90;;;;;;4163780;28;19924;-44
2022/05/19 05:38:56;;;;;;;;;;;11.10;99.90;;;;;;4164591;28;20432;-43
2022/05/19 05:41:02;;;;;;;;;;;11.30;99.90;;;;;;4164299;28;19929;-43
2022/05/19 05:43:09;;;;;;;1.67;0.90;;;11.50;99.90;;;;;;4163655;28;19921;-43
2022/05/19 05:45:12;;;;;;;2.70;1.10;;;11.60;99.90;;;;;;4163395;28;20467;-44
2022/05/19 05:47:14;;;;;;;2.28;1.85;;;11.80;99.90;;;;;;4163940;28;20252;-44
2022/05/19 05:49:18;;;;;;;1.55;1.55;;;11.90;99.90;;;;;;4163735;28;20505;-43
2022/05/19 05:51:20;;;;;;;3.72;0.90;;;12.00;99.90;;;;;;4163264;28;20103;-43
2022/05/19 05:53:23;;;;;;;;;;;12.10;99.90;;;;;;4164211;28;20037;-43
2022/05/19 05:55:26;;;;;;;1.30;0.95;;;12.10;99.90;;;;;;4163495;28;19931;-43
2022/05/19 05:57:28;;;;;;;1.17;1.17;;;12.30;99.90;;;;;;4163418;28;20111;-43
2022/05/19 05:59:31;;;;;;;2.00;1.00;;;12.60;99.90;;;;;;4163735;28;20041;-43
2022/05/19 06:01:33;;;;;;;0.90;0.90;;;12.80;99.90;;;;;;4151765;28;20046;-45
2022/05/19 06:03:38;;;;;;;1.45;1.35;;;12.80;99.90;;;;;;4149866;28;20129;-43
2022/05/19 06:05:42;;;;;;;2.20;0.90;;;12.70;99.90;;;;;;4163738;28;20038;-45
2022/05/19 06:07:45;;;;;;;5.18;1.00;;;12.80;99.90;;;;;;4163321;28;20034;-44
2022/05/19 06:09:50;;;;;;;3.33;0.80;;;13.00;99.90;;;;;;4163539;28;20404;-43
2022/05/19 06:11:52;;;;;;;6.97;1.15;;;13.20;99.90;;;;;;4162231;28;20091;-44
2022/05/19 06:13:54;;;;;;;1.10;0.80;;;13.30;99.90;;;;;;4163454;28;20049;-44
2022/05/19 06:15:56;;;;;;;1.00;0.90;;;13.50;99.90;;;;;;4163455;28;20042;-43
2022/05/19 06:17:59;;;;;;;6.32;1.08;;;13.90;99.90;;;;;;4154502;28;20045;-43
2022/05/19 06:20:01;;;;;;;;;;;14.10;99.90;;;;;;4163582;28;20042;-43
2022/05/19 06:22:04;;;;;;;0.70;0.70;;;14.20;99.90;;;;;;4163032;28;19925;-44
2022/05/19 06:24:08;;;;;;;;;;;14.30;99.90;;;;;;4163647;28;20489;-44
2022/05/19 06:26:11;;;;;;;1.67;0.80;;;14.40;99.90;;;;;;4163146;28;20012;-43
2022/05/19 06:28:14;;;;;;;5.15;0.90;;;14.60;99.90;;;;;;4163296;28;20041;-43
2022/05/19 06:30:19;;;;;;;0.90;0.90;;;14.90;99.90;;;;;;4163094;28;20049;-43
2022/05/19 06:32:21;;;;;;;3.83;0.90;;;15.00;99.90;;;;;;4162905;28;20041;-44
2022/05/19 06:34:23;;;;;;;1.52;0.90;;;15.20;99.90;;;;;;4163091;28;20041;-43
2022/05/19 06:36:26;;;;;;;2.00;0.90;;;15.20;99.90;;;;;;4163208;28;20034;-44
2022/05/19 06:38:28;;;;;;;1.38;0.95;;;15.30;99.90;;;;;;4162993;28;20559;-44
2022/05/19 06:40:31;;;;;;;2.40;0.75;;;15.50;99.90;;;;;;4162832;28;20041;-43
2022/05/19 06:42:35;;;;;;;1.65;0.70;;;15.60;99.90;;;;;;4162751;28;20080;-43
2022/05/19 06:44:39;;;;;;;0.80;0.80;;;16.00;99.90;;;;;;4163141;28;20037;-43
2022/05/19 06:46:41;;;;;;;1.58;0.70;;;16.40;99.90;;;;;;4163058;28;20041;-44
2022/05/19 06:48:43;;;;;;;0.80;0.80;;;16.50;99.90;;;;;;4162748;28;20120;-43
2022/05/19 06:50:46;;;;;;;2.85;1.23;;;16.70;99.90;;;;;;4162933;28;20099;-44
2022/05/19 06:52:54;;;;;;;0.70;0.70;;;17.00;99.90;;;;;;4162604;28;20049;-44
2022/05/19 06:55:02;;;;;;;0.70;0.70;;;17.00;99.70;;;;;;4162982;28;20044;-43
2022/05/19 06:57:05;;;;;;;3.42;0.80;;;17.20;99.90;;;;;;4163023;28;20045;-43
2022/05/19 06:59:07;;;;;;;0.70;0.68;;;17.30;99.90;;;;;;4148195;28;20407;-43
2022/05/19 07:01:10;;;;;;;3.65;1.00;;;17.40;99.90;;;;;;4149899;28;20088;-43
2022/05/19 07:03:12;;;;;;;;;;;18.00;99.90;;;;;;4161702;28;20528;-43
2022/05/19 07:05:14;;;;;;;1.60;0.60;;;18.40;99.90;;;;;;4162933;28;19925;-45
2022/05/19 07:07:17;;;;;;;0.88;0.88;;;19.00;99.70;;;;;;4162541;28;20056;-43
2022/05/19 07:09:19;;;;;;;;;;;19.10;98.90;;;;;;4163102;28;20103;-44
2022/05/19 07:11:27;;;;;;;0.65;0.63;;;19.00;98.90;;;;;;4158153;28;19932;-43
2022/05/19 07:13:31;;;;;;;0.85;0.70;;;19.10;99.90;;;;;;4162349;28;20060;-45
2022/05/19 07:15:34;;;;;;;0.95;0.70;;;19.20;99.70;;;;;;4162606;28;20394;-44
2022/05/19 07:17:36;;;;;;;1.17;0.70;;;19.30;97.90;;;;;;4162159;28;20037;-43
2022/05/19 07:21:59;;;;;;;2.28;0.73;;;20.10;98.50;;;;;;4145987;28;19956;-43
2022/05/19 07:24:01;;;;;;;2.05;0.60;;;20.80;97.70;;;;;;4154043;28;20033;-43
2022/05/19 07:26:03;;;;;;;0.95;0.60;;;21.00;97.00;;;;;;4162261;28;20111;-43
2022/05/19 07:28:06;;;;;;;2.05;0.60;;;21.00;96.30;;;;;;4161116;28;20099;-44
2022/05/19 07:30:09;;;;;;;1.27;0.60;;;21.00;95.60;;;;;;4161875;28;20033;-44
2022/05/19 07:32:11;;;;;;;1.75;0.63;;;21.50;96.90;;;;;;4162156;28;20073;-43
2022/05/19 07:34:15;;;;;;;2.55;0.50;;;21.70;96.10;;;;;;4147766;28;20049;-45
2022/05/19 07:36:17;;;;;;;1.77;0.50;;;21.90;95.70;;;;;;4149749;28;20046;-43
2022/05/19 07:38:19;;;;;;;2.53;0.93;;;21.70;92.90;;;;;;4162009;28;20065;-45
2022/05/19 07:40:22;;;;;;;2.15;0.60;;;21.60;93.10;;;;;;4161313;28;20140;-44
2022/05/19 07:42:25;;;;;;;3.17;0.60;;;21.50;93.30;;;;;;4161868;28;20481;-44
2022/05/19 07:44:28;;;;;;;1.02;0.60;;;21.70;92.60;;;;;;4161996;28;20049;-44
2022/05/19 07:46:31;;;;;;;0.50;0.50;;;22.00;92.40;;;;;;4162245;28;20030;-43
2022/05/19 07:48:33;;;;;;;0.50;0.50;;;21.90;92.20;;;;;;4162140;28;20087;-43
2022/05/19 07:50:36;;;;;;;0.68;0.40;;;22.00;92.90;;;;;;4156765;28;20049;-43
2022/05/19 07:52:38;;;;;;;;;;;22.40;93.00;;;;;;4162182;28;20064;-43
2022/05/19 07:54:41;;;;;;;1.00;0.50;;;22.40;91.30;;;;;;4161767;28;19971;-43
2022/05/19 07:56:43;;;;;;;;;;;22.40;90.70;;;;;;4162003;28;20059;-44
2022/05/19 07:58:48;;;;;;;0.50;0.50;;;22.90;91.10;;;;;;4161540;28;19921;-43
2022/05/19 08:00:53;;;;;;;0.40;0.40;;;23.00;91.10;;;;;;4161603;28;20124;-40
2022/05/19 08:02:55;;;;;;;1.05;0.40;;;23.00;90.30;;;;;;4161692;28;20099;-41
2022/05/19 08:04:57;;;;;;;;;;;23.20;89.10;;;;;;4162057;28;20037;-40
2022/05/19 08:07:01;;;;;;;0.43;0.43;;;23.40;90.00;;;;;;4161496;28;19937;-40
2022/05/19 08:11:29;;;;;;;0.40;0.40;;;24.10;89.80;;;;;;4161125;28;20077;-41
2022/05/19 08:15:51;;;;;;;2.65;0.40;;;24.40;85.60;;;;;;4161617;28;20046;-41
2022/05/19 08:17:54;;;;;;;0.40;0.40;;;24.10;84.80;;;;;;4161028;28;20045;-41
2022/05/19 08:19:56;;;;;;;0.57;0.40;;;24.10;82.20;;;;;;4161612;28;20045;-42
2022/05/19 08:21:58;;;;;;;;;;;23.90;81.40;;;;;;4161766;28;20037;-41
2022/05/19 08:24:01;;;;;;;0.40;0.40;;;23.90;82.20;;;;;;4161348;28;20358;-41
2022/05/19 08:26:03;;;;;;;;;;;23.90;85.50;;;;;;4162023;28;20069;-40
2022/05/19 08:28:06;;;;;;;0.40;0.40;;;23.90;82.20;;;;;;4161305;28;20297;-41
2022/05/19 08:30:10;;;;;;;0.40;0.40;;;23.90;83.20;;;;;;4161240;28;20053;-41
2022/05/19 08:32:13;;;;;;;1.80;0.50;;;24.10;82.30;;;;;;4161284;28;20471;-41
2022/05/19 08:34:16;;;;;;;0.40;0.40;;;24.30;79.90;;;;;;4151537;28;20100;-41
2022/05/19 08:36:18;;;;;;;0.60;0.60;;;24.60;81.40;;;;;;4145246;28;20121;-41
2022/05/19 08:38:21;;;;;;;0.70;0.70;;;24.60;79.30;;;;;;4160561;28;20045;-41
2022/05/19 08:40:24;;;;;;;0.55;0.40;;;24.20;77.50;;;;;;4160946;28;20061;-42
2022/05/19 08:42:29;;;;;;;0.43;0.40;;;24.30;80.60;;;;;;4161465;28;20509;-41
2022/05/19 08:44:33;;;;;;;3.80;0.43;;;24.50;82.60;;;;;;4161057;28;20041;-41
2022/05/19 08:46:42;;;;;;;0.40;0.40;;;24.40;76.20;;;;;;4161028;28;20516;-41
2022/05/19 08:48:49;;;;;;;0.40;0.40;;;24.60;82.80;;;;;;4160127;28;20092;-42
2022/05/19 08:50:59;;;;;;;1.23;0.40;;;25.00;81.90;;;;;;4160845;28;20091;-40
2022/05/19 08:53:02;;;;;;;0.30;0.30;;;25.30;82.30;;;;;;4163153;28;20398;-41
2022/05/19 08:55:06;;;;;;;0.35;0.35;;;25.10;74.80;;;;;;4164594;28;20477;-42
2022/05/19 08:57:31;;;;;;;1.95;0.40;;;25.00;78.60;;;;;;4164555;28;20065;-40
2022/05/19 08:59:47;;;;;;;0.40;0.40;;;25.00;78.60;;;;;;4164325;28;20060;-40
2022/05/19 09:02:14;;;;;;;0.98;0.40;;;25.30;75.30;;;;;;4164388;28;20578;-41
2022/05/19 09:04:31;;;;;;;0.30;0.30;;;25.20;75.20;;;;;;4164317;28;20528;-41
2022/05/19 09:06:36;;;;;;;4.65;0.40;;;25.10;74.40;;;;;;4164087;28;20096;-40
2022/05/19 09:08:57;;;;;;;0.68;0.40;;;25.10;73.90;;;;;;4164585;28;20485;-40
2022/05/19 09:10:59;;;;;;;0.40;0.40;;;25.40;74.80;;;;;;4164198;28;20037;-41
2022/05/19 09:13:26;;;;;;;0.70;0.40;;;25.30;74.90;;;;;;4164162;28;20036;-42
2022/05/19 09:15:29;;;;;;;0.75;0.40;;;25.20;72.80;;;;;;4163931;28;20398;-40
2022/05/19 09:17:35;;;;;;;0.68;0.40;;;25.00;73.80;;;;;;4163642;28;20041;-41
2022/05/19 09:19:54;;;;;;;1.77;0.40;;;25.10;73.40;;;;;;4164098;28;20052;-40
2022/05/19 09:22:18;;;;;;;0.30;0.30;;;25.00;73.10;;;;;;4163996;28;20480;-41
2022/05/19 09:24:22;;;;;;;0.47;0.47;;;25.50;76.30;;;;;;4164109;28;20048;-40
2022/05/19 09:26:55;;;;;;;0.40;0.40;;;26.00;75.30;;;;;;4161841;28;20111;-40
2022/05/19 09:29:16;;;;;;;0.40;0.40;;;26.10;74.50;;;;;;4126708;28;20073;-41
2022/05/19 09:31:43;;;;;;;0.40;0.40;;;26.00;72.40;;;;;;4120170;28;20046;-41
2022/05/19 09:33:47;;;;;;;0.40;0.40;;;26.20;77.40;;;;;;4134553;28;20494;-41
2022/05/19 09:35:54;;;;;;;0.98;0.30;;;26.40;75.20;;;;;;4128257;28;20213;-40
2022/05/19 09:38:17;;;;;;;0.45;0.30;;;26.80;72.60;;;;;;4132277;28;20084;-42
2022/05/19 09:40:28;;;;;;;0.40;0.40;;;26.80;72.70;;;;;;4127993;28;20050;-42
2022/05/19 09:42:53;;;;;;;0.77;0.40;;;26.70;71.20;;;;;;4131240;28;20046;-41
2022/05/19 09:44:57;;;;;;;0.40;0.40;;;26.50;70.30;;;;;;4128645;28;20552;-41
2022/05/19 09:47:16;;;;;;;0.43;0.40;;;26.80;75.30;;;;;;4132758;28;20141;-40
2022/05/19 09:49:37;;;;;;;0.45;0.32;;;27.30;75.20;;;;;;4131372;28;20109;-42
2022/05/19 09:51:43;;;;;;;0.30;0.30;;;27.30;70.00;;;;;;4130298;28;20469;-41
2022/05/19 09:53:52;;;;;;;0.30;0.30;;;26.50;72.40;;;;;;4130341;28;20038;-42
2022/05/19 09:56:03;;;;;;;0.30;0.30;;;26.70;71.50;;;;;;4129789;28;20053;-41
2022/05/19 09:58:09;;;;;;;0.32;0.32;;;26.80;73.70;;;;;;4131155;28;20533;-41
2022/05/19 10:00:39;;;;;;;2.58;0.30;;;27.30;71.70;;;;;;4129711;28;20054;-40
2022/05/19 10:02:49;;;;;;;0.30;0.30;;;27.30;66.60;;;;;;4137241;28;20088;-41
2022/05/19 10:05:22;;;;;;;0.20;0.20;;;27.40;67.30;;;;;;4132474;28;20478;-41
2022/05/19 10:07:35;;;;;;;6.03;0.40;;;27.40;67.50;;;;;;4157742;28;20679;-40
2022/05/19 10:09:43;;;;;;;0.30;0.30;;;27.10;66.10;;;;;;4152654;28;20049;-41
2022/05/19 10:11:54;;;;;;;0.28;0.28;;;27.30;68.70;;;;;;4157169;28;20049;-41
2022/05/19 10:14:08;;;;;;;1.33;0.32;;;26.90;68.40;;;;;;4162037;28;20484;-40
2022/05/19 10:16:21;;;;;;;0.30;0.30;;;27.40;66.10;;;;;;4160954;28;20421;-42
2022/05/19 10:18:49;;;;;;;0.30;0.30;;;27.10;72.90;;;;;;4157302;28;20041;-42
2022/05/19 10:21:04;;;;;;;0.30;0.30;;;27.40;68.20;;;;;;4149402;28;20060;-40
2022/05/19 10:23:09;;;;;;;0.30;0.30;;;27.70;70.30;;;;;;4162327;28;20038;-41
2022/05/19 10:25:26;;;;;;;0.30;0.30;;;27.90;68.10;;;;;;4153132;28;20409;-41
2022/05/19 10:32:48;;;;;;;1.08;0.30;;;28.30;67.10;;;;;;4159353;28;20111;-41
2022/05/19 10:35:34;;;;;;;0.90;0.30;;;28.20;67.80;;;;;;4157658;28;20049;-41
2022/05/19 10:37:46;;;;;;;1.63;0.38;;;28.30;69.00;;;;;;4128132;28;20058;-41
2022/05/19 10:40:12;;;;;;;0.32;0.30;;;28.10;64.00;;;;;;4115065;28;20066;-41
2022/05/19 10:42:29;;;;;;;;;;;27.90;69.00;;;;;;4123764;28;20460;-41
2022/05/19 10:45:09;;;;;;;0.30;0.30;;;28.10;67.70;;;;;;4122530;28;19980;-41
2022/05/19 10:47:35;;;;;;;0.30;0.30;;;28.10;68.40;;;;;;4127964;28;20124;-42
2022/05/19 10:49:46;;;;;;;0.20;0.20;;;27.90;64.40;;;;;;4121351;28;20459;-41
2022/05/19 10:52:16;;;;;;;0.40;0.30;;;27.90;66.70;;;;;;4127698;28;20058;-42
2022/05/19 10:54:37;;;;;;;0.20;0.20;;;27.50;63.00;;;;;;4118051;28;20129;-43
2022/05/19 10:56:46;;;;;;;0.20;0.20;;;28.00;64.60;;;;;;4127923;28;20050;-42
2022/05/19 10:59:12;;;;;;;0.30;0.30;;;28.40;63.40;;;;;;4111934;28;20066;-41
2022/05/19 11:01:22;;;;;;;0.43;0.30;;;28.60;67.10;;;;;;4120590;28;20057;-42
2022/05/19 11:03:45;;;;;;;0.90;0.30;;;28.70;67.80;;;;;;4125994;28;20050;-42
2022/05/19 11:05:54;;;;;;;0.30;0.30;;;28.80;66.80;;;;;;4123154;28;20051;-41
2022/05/19 11:08:26;;;;;;;0.30;0.30;;;28.90;72.00;;;;;;4123126;28;20042;-40
2022/05/19 11:10:37;;;;;;;0.30;0.30;;;28.60;61.60;;;;;;4120897;28;20443;-41
2022/05/19 11:13:17;;;;;;;0.30;0.30;;;28.80;64.60;;;;;;4133226;28;20054;-41
2022/05/19 11:15:35;;;;;;;2.03;0.30;;;28.50;63.20;;;;;;4145117;28;20042;-41
2022/05/19 11:17:44;;;;;;;0.30;0.30;;;28.40;66.60;;;;;;4158363;28;20057;-41
2022/05/19 11:20:00;;;;;;;0.30;0.30;;;28.50;68.10;;;;;;4162702;28;20056;-42